createdAt,value
2023-04-28T00:18:08.785Z,49.90
2023-04-28T00:28:30.466Z,49.60
2023-04-28T00:40:01.995Z,51.10
2023-04-28T00:50:16.604Z,50.20
2023-04-28T01:12:09.487Z,52.10
2023-04-28T01:22:23.807Z,52.60
2023-04-28T01:32:36.130Z,51.80
2023-04-28T01:42:44.011Z,51.00
2023-04-28T01:52:52.771Z,49.70
2023-04-28T02:03:01.639Z,49.70
2023-04-28T02:13:30.817Z,53.40
2023-04-28T02:35:22.012Z,50.80
2023-04-28T02:59:06.528Z,51.60
2023-04-28T03:09:51.028Z,51.30
2023-04-28T03:54:06.731Z,55.10
2023-04-28T04:04:18.448Z,57.60
2023-04-28T04:14:28.762Z,59.00
2023-04-28T04:24:36.720Z,58.40
2023-04-28T04:34:53.307Z,59.20
2023-04-28T04:45:03.517Z,58.20
2023-04-28T04:55:13.870Z,57.90
2023-04-28T05:05:28.687Z,57.50
2023-04-28T05:16:03.061Z,57.20
2023-04-28T05:38:19.185Z,56.50
2023-04-28T05:48:29.255Z,56.50
2023-04-28T05:59:34.735Z,56.40
2023-04-28T06:09:46.187Z,56.30
2023-04-28T06:19:56.987Z,56.00
2023-04-28T06:30:06.311Z,55.80
2023-04-28T06:40:14.219Z,55.60
2023-04-28T06:50:32.135Z,55.30
2023-04-28T07:00:40.216Z,55.60
2023-04-28T07:10:50.208Z,55.10
2023-04-28T07:20:58.625Z,55.00
2023-04-28T07:31:08.382Z,54.80
2023-04-28T07:41:21.579Z,54.60
2023-04-28T07:51:30.830Z,54.30
2023-04-28T08:01:37.860Z,54.00
2023-04-28T08:11:47.029Z,53.80
2023-04-28T08:21:57.497Z,53.60
2023-04-28T08:32:07.562Z,53.40
2023-04-28T08:42:15.633Z,53.10
2023-04-28T08:52:24.623Z,53.00
2023-04-28T09:02:32.184Z,52.70
2023-04-28T09:12:50.840Z,52.50
2023-04-28T09:23:20.742Z,52.40
2023-04-28T09:33:32.981Z,52.10
2023-04-28T09:54:12.183Z,51.80
2023-04-28T10:04:22.011Z,51.70
2023-04-28T10:14:32.565Z,51.60
2023-04-28T10:24:58.820Z,51.50
2023-04-28T10:35:46.225Z,51.30
2023-04-28T10:46:18.073Z,51.10
2023-04-28T10:56:36.130Z,51.00
2023-04-28T11:06:49.505Z,50.80
2023-04-28T11:17:10.927Z,50.70
2023-04-28T11:27:47.657Z,50.50
2023-04-28T11:38:08.850Z,50.40
2023-04-28T11:48:26.701Z,50.30
2023-04-28T11:58:40.897Z,50.10
2023-04-28T12:08:56.849Z,50.00
2023-04-28T12:19:08.856Z,49.90
2023-04-28T12:29:42.291Z,49.80
2023-04-28T12:39:52.194Z,49.80
2023-04-28T12:50:04.845Z,49.60
2023-04-28T13:00:36.745Z,49.40
2023-04-28T13:10:46.824Z,49.30
2023-04-28T13:31:17.328Z,49.00
2023-04-28T13:41:24.549Z,49.00
2023-04-28T13:51:33.928Z,48.90
2023-04-28T14:01:41.383Z,48.80
2023-04-28T14:11:50.380Z,48.60
2023-04-28T14:21:57.777Z,48.20
2023-04-28T14:32:06.577Z,47.70
2023-04-28T14:42:13.833Z,47.80
2023-04-28T14:52:23.305Z,48.30
2023-04-28T15:03:38.429Z,48.60
2023-04-28T15:13:47.692Z,49.00
2023-04-28T15:23:58.930Z,48.70
2023-04-28T15:34:07.940Z,48.20
2023-04-28T15:44:15.331Z,47.50
2023-04-28T15:54:24.557Z,45.20
2023-04-28T16:04:54.111Z,44.70
2023-04-28T16:15:06.046Z,43.20
2023-04-28T16:25:14.110Z,43.30
2023-04-28T16:35:22.897Z,43.30
2023-04-28T16:45:30.421Z,43.50
2023-04-28T16:55:40.440Z,43.70
2023-04-28T17:05:48.371Z,44.10
2023-04-28T17:16:01.107Z,44.20
2023-04-28T17:26:08.700Z,43.90
2023-04-28T17:36:18.005Z,44.20
2023-04-28T17:46:25.366Z,43.80
2023-04-28T17:56:34.310Z,44.00
2023-04-28T18:06:41.956Z,45.20
2023-04-28T18:29:07.831Z,47.40
2023-04-28T18:39:16.421Z,47.70
2023-04-28T18:49:25.838Z,47.60
2023-04-28T18:59:41.855Z,47.60
2023-04-28T19:09:51.979Z,48.90
2023-04-28T19:20:15.634Z,49.30
2023-04-28T19:30:24.402Z,49.30
2023-04-28T19:40:31.472Z,49.70
2023-04-28T19:50:43.521Z,48.70
2023-04-28T20:01:18.546Z,48.80
2023-04-28T20:22:41.470Z,48.80
2023-04-28T20:32:54.403Z,48.90
2023-04-28T20:43:25.915Z,49.00
2023-04-28T20:53:34.726Z,49.10
2023-04-28T21:03:42.964Z,49.30
2023-04-28T21:13:53.040Z,48.80
2023-04-28T21:24:00.075Z,49.00
2023-04-28T21:34:08.840Z,49.60
2023-04-28T21:44:15.734Z,49.70
2023-04-28T21:54:24.283Z,49.80
2023-04-28T22:04:31.656Z,50.10
2023-04-28T22:14:41.540Z,50.70
2023-04-28T22:24:50.999Z,50.50
2023-04-28T22:34:59.586Z,51.10
2023-04-28T22:45:07.585Z,50.20
2023-04-28T22:55:16.867Z,50.20
2023-04-28T23:06:12.653Z,50.40
2023-04-28T23:16:24.866Z,50.50
2023-04-28T23:26:31.890Z,50.30
2023-04-28T23:36:40.667Z,50.50
2023-04-28T23:46:48.020Z,50.60
